»·PEaware :: QAF243 KLAS-KSAN

QAF243 :: KLAS-KSAN

FLIGHT INFORMATION

Flight Status: Arrived
Operator: Unknown
More flights by this operator :: More flights under this callsign
Pilot: Cullen C. (7783)
Aircraft: AIRBUS A320
(A320)
More flights by this aircraft type
Origin: KLAS McCarran Intl
United States
Destination: KSAN San Diego Intl-Lindbergh
United States
More flights between these airports :: More routes between these airports
Route: +BOACH8 LVELL LUCKI1
File this flight plan on PilotEdge
Remarks:
Altitude:
(Current/Filed)
38,000ft
Speed:
(Current/Filed)
440kts
Departed: 03-Dec-17 07:21 PM
Arrived: 03-Dec-17 08:08 PM
Distance/Time
Traveled:
224nm/0:47
Distance/Time
To Go:
Arrived

Flight Plot

Page will automatically refresh every two minutes.

Flight plan parsing failed; only flown route is shown


Map Options




Map Legend


Flown Route
Filed Route
Departure Airport
Arrival Airport
Navaid (VOR, NDB)
Fix

Horizontal Profiles

Position Reports

Time Latitude Longitude Heading Altitude Ground
Speed
03-Dec-17 18:42 36.100369 -115.159186 161 2120ft 0kts
03-Dec-17 18:43 36.100369 -115.159186 161 2120ft 0kts
03-Dec-17 18:44 36.100369 -115.159186 161 2120ft 0kts
03-Dec-17 18:45 36.100369 -115.159186 161 2120ft 0kts
03-Dec-17 18:46 36.100369 -115.159186 161 2120ft 0kts
03-Dec-17 18:47 36.100369 -115.159186 161 2120ft 0kts
03-Dec-17 18:48 36.100369 -115.159186 161 2120ft 0kts
03-Dec-17 18:49 36.100369 -115.159186 161 2120ft 0kts
03-Dec-17 18:50 36.100369 -115.159186 161 2120ft 0kts
03-Dec-17 18:51 36.100369 -115.159186 161 2120ft 0kts
03-Dec-17 18:52 36.100369 -115.159186 161 2120ft 0kts
03-Dec-17 18:53 36.100369 -115.159186 161 2120ft 0kts
03-Dec-17 18:54 36.100369 -115.159186 161 2120ft 0kts
03-Dec-17 18:55 36.100369 -115.159186 161 2120ft 0kts
03-Dec-17 18:56 36.100369 -115.159186 161 2120ft 0kts
03-Dec-17 18:57 36.100369 -115.159186 161 2120ft 0kts
03-Dec-17 18:58 36.100369 -115.159186 161 2120ft 0kts
03-Dec-17 18:59 36.100369 -115.159186 161 2120ft 0kts
03-Dec-17 19:00 36.100369 -115.159186 161 2120ft 0kts
03-Dec-17 19:01 36.100369 -115.159186 161 2120ft 0kts
03-Dec-17 19:02 36.100369 -115.159186 161 2120ft 0kts
03-Dec-17 19:03 36.100369 -115.159186 161 2120ft 0kts
03-Dec-17 19:04 36.100369 -115.159186 161 2120ft 0kts
03-Dec-17 19:05 36.100369 -115.159186 161 2120ft 0kts
03-Dec-17 19:06 36.100369 -115.159186 161 2120ft 0kts
03-Dec-17 19:07 36.100369 -115.159186 161 2120ft 0kts
03-Dec-17 19:08 36.100369 -115.159186 161 2120ft 0kts
03-Dec-17 19:09 36.100369 -115.159186 161 2120ft 0kts
03-Dec-17 19:10 36.100369 -115.159186 161 2120ft 0kts
03-Dec-17 19:11 36.100369 -115.159186 161 2120ft 0kts
03-Dec-17 19:12 36.100369 -115.159186 161 2120ft 0kts
03-Dec-17 19:13 36.100343 -115.159179 167 2120ft 3kts
03-Dec-17 19:14 36.100292 -115.159172 174 2120ft 0kts
03-Dec-17 19:15 36.100292 -115.159172 174 2120ft 0kts
03-Dec-17 19:16 36.100292 -115.159172 174 2120ft 0kts
03-Dec-17 19:17 36.100292 -115.159172 174 2120ft 0kts
03-Dec-17 19:18 36.100292 -115.159172 174 2120ft 0kts
03-Dec-17 19:19 36.100292 -115.159172 174 2120ft 0kts
03-Dec-17 19:20 36.100292 -115.159172 174 2120ft 0kts
03-Dec-17 19:21 36.100292 -115.159172 174 2120ft 0kts
03-Dec-17 19:22 36.100292 -115.159172 174 2120ft 0kts
03-Dec-17 19:23 36.099615 -115.158231 60 2120ft 11kts
03-Dec-17 19:24 36.099804 -115.157712 76 2120ft 0kts
03-Dec-17 19:25 36.099274 -115.156643 187 2120ft 11kts
03-Dec-17 19:26 36.066711 -115.174743 211 3514ft 219kts
03-Dec-17 19:27 36.008791 -115.217638 244 6853ft 278kts
03-Dec-17 19:28 35.966950 -115.297180 213 7062ft 296kts
03-Dec-17 19:29 35.884797 -115.312196 186 9783ft 311kts
03-Dec-17 19:30 35.793942 -115.308137 178 13035ft 360kts
03-Dec-17 19:31 35.696066 -115.296781 181 17120ft 359kts
03-Dec-17 19:32 35.607275 -115.297566 189 20038ft 363kts
03-Dec-17 19:33 35.505262 -115.301589 190 22935ft 374kts
03-Dec-17 19:34 35.400977 -115.305715 191 25467ft 384kts
03-Dec-17 19:35 35.292866 -115.309995 192 27635ft 397kts
03-Dec-17 19:36 35.181818 -115.314360 193 29587ft 407kts
03-Dec-17 19:37 35.075201 -115.318525 193 31302ft 414kts
03-Dec-17 19:38 34.960809 -115.322970 194 33048ft 416kts
03-Dec-17 19:39 34.846030 -115.327474 194 34330ft 423kts
03-Dec-17 19:40 34.736415 -115.350404 211 35945ft 389kts
03-Dec-17 19:41 34.635534 -115.394631 211 37313ft 386kts
03-Dec-17 19:42 34.535257 -115.438452 211 38064ft 385kts
03-Dec-17 19:43 34.435174 -115.482053 211 38090ft 384kts
03-Dec-17 19:44 34.335062 -115.526108 215 38092ft 380kts
03-Dec-17 19:45 34.246024 -115.588539 221 38092ft 369kts
03-Dec-17 19:46 34.151689 -115.642630 213 38079ft 382kts
03-Dec-17 19:47 34.057171 -115.687201 212 37047ft 379kts
03-Dec-17 19:48 33.960106 -115.732872 212 34761ft 376kts
03-Dec-17 19:49 33.867209 -115.777526 213 32970ft 359kts
03-Dec-17 19:50 33.777599 -115.821493 213 31237ft 345kts
03-Dec-17 19:51 33.688039 -115.863733 212 29396ft 349kts
03-Dec-17 19:52 33.599274 -115.905157 211 27617ft 340kts
03-Dec-17 19:53 33.515271 -115.950477 228 25884ft 316kts
03-Dec-17 19:54 33.464547 -116.031813 240 24558ft 305kts
03-Dec-17 19:55 33.416281 -116.114805 240 23253ft 302kts
03-Dec-17 19:56 33.368606 -116.196682 239 21965ft 299kts
03-Dec-17 19:57 33.315546 -116.263211 213 20626ft 316kts
03-Dec-17 19:58 33.237884 -116.308500 213 18872ft 311kts
03-Dec-17 19:59 33.161040 -116.353417 213 17109ft 307kts
03-Dec-17 20:00 33.084746 -116.397512 210 15331ft 306kts
03-Dec-17 20:01 33.009657 -116.440733 218 13771ft 294kts
03-Dec-17 20:02 32.948243 -116.501716 225 12123ft 289kts
03-Dec-17 20:03 32.886525 -116.564260 221 10463ft 294kts
03-Dec-17 20:04 32.826669 -116.624548 220 9373ft 276kts
03-Dec-17 20:05 32.772872 -116.680936 234 8022ft 271kts
03-Dec-17 20:06 32.736106 -116.757819 241 6672ft 268kts
03-Dec-17 20:07 32.702498 -116.833921 250 5845ft 250kts
03-Dec-17 20:08 32.679997 -116.907311 251 5234ft 227kts
03-Dec-17 20:09 32.683258 -116.980855 284 3868ft 238kts
03-Dec-17 20:10 32.700912 -117.052888 285 2504ft 218kts
03-Dec-17 20:11 32.716402 -117.118447 285 1318ft 174kts
03-Dec-17 20:12 32.727812 -117.165951 285 316ft 133kts
03-Dec-17 20:13 32.734644 -117.190785 41 22ft 6kts
03-Dec-17 20:14 32.734831 -117.190403 80 23ft 6kts
03-Dec-17 20:15 32.733821 -117.186007 106 23ft 15kts
03-Dec-17 20:16 32.732224 -117.179308 102 25ft 21kts
03-Dec-17 20:17 32.732263 -117.177268 157 33ft 0kts
03-Dec-17 20:18 32.732263 -117.177268 157 33ft 0kts
03-Dec-17 20:19 32.732263 -117.177268 157 33ft 0kts
03-Dec-17 20:20 32.732263 -117.177268 157 33ft 0kts
03-Dec-17 20:21 32.732263 -117.177268 157 33ft 0kts
03-Dec-17 20:22 32.732263 -117.177268 157 33ft 0kts

Navigation Log

Ident Type
Flight plan parsing failed, navigation log unavailable